Time;durP1;ratioP1;P1;durP2;ratioP2;P2;SDS_P1;SDS_P2;PMS_P1;PMS_P2;Temp;Humidity;BMP_temperature;BMP_pressure;BME280_temperature;BME280_humidity;BME280_pressure;Samples;Min_cycle;Max_cycle;Signal;HPM_P1;HPM_P2
2021/05/04 00:02:29;;;;;;;2.55;2.05;;;;;;;8.90;82.35;99011.06;1783522;78;20982;-68
2021/05/04 00:05:06;;;;;;;3.02;2.40;;;;;;;8.89;82.62;99013.27;1715212;82;21014;-68
2021/05/04 00:07:43;;;;;;;3.55;2.62;;;;;;;8.87;82.77;99007.12;1709949;82;21038;-68
2021/05/04 00:10:21;;;;;;;3.35;2.35;;;;;;;8.87;82.71;99015.02;1783258;78;21019;-67
2021/05/04 00:12:57;;;;;;;3.85;2.45;;;;;;;8.84;83.04;99011.52;1798535;78;21579;-66
2021/05/04 00:15:38;;;;;;;3.33;2.42;;;;;;;8.81;83.06;99014.16;1797743;78;20903;-67
2021/05/04 00:18:18;;;;;;;5.40;2.40;;;;;;;8.81;83.18;99011.96;1795891;78;21042;-67
2021/05/04 00:20:53;;;;;;;4.50;2.40;;;;;;;8.80;83.31;99009.77;1796548;78;21484;-68
2021/05/04 00:23:31;;;;;;;2.98;2.47;;;;;;;8.79;83.13;99016.34;1798582;78;20931;-68
2021/05/04 00:26:10;;;;;;;2.85;2.37;;;;;;;8.75;83.24;99016.79;1798209;78;20891;-67
2021/05/04 00:28:44;;;;;;;2.83;2.47;;;;;;;8.73;83.37;99027.75;1798126;78;20879;-67
2021/05/04 00:31:17;;;;;;;2.77;2.47;;;;;;;8.73;83.53;99019.86;1783169;79;21235;-68
2021/05/04 00:33:49;;;;;;;5.08;2.65;;;;;;;8.72;83.78;99023.37;1714243;82;21137;-67
2021/05/04 00:36:24;;;;;;;3.83;2.72;;;;;;;8.70;84.01;99018.55;1709790;82;28573;-68
2021/05/04 00:39:02;;;;;;;3.70;2.67;;;;;;;8.69;84.30;99029.07;1766784;81;20923;-68
2021/05/04 00:41:42;;;;;;;9.83;2.85;;;;;;;8.65;84.43;99025.56;1711557;80;21053;-68
2021/05/04 00:44:15;;;;;;;3.05;2.20;;;;;;;8.64;84.69;99022.94;1767963;78;21031;-68
2021/05/04 00:46:48;;;;;;;4.12;2.52;;;;;;;8.63;84.76;99024.69;1748444;80;21364;-67
2021/05/04 00:49:22;;;;;;;4.42;2.67;;;;;;;8.62;84.76;99026.88;1788529;78;21488;-68
2021/05/04 00:51:55;;;;;;;5.30;2.42;;;;;;;8.61;85.00;99032.14;1723065;80;20949;-67
2021/05/04 00:54:33;;;;;;;3.10;2.37;;;;;;;8.57;85.10;99034.33;1757111;80;20923;-67
2021/05/04 00:57:11;;;;;;;3.70;2.27;;;;;;;8.53;85.41;99034.77;1757247;80;21114;-67
2021/05/04 00:59:50;;;;;;;2.58;2.30;;;;;;;8.50;85.73;99032.11;1757247;80;22298;-67
2021/05/04 01:02:22;;;;;;;4.62;2.30;;;;;;;8.49;86.05;99035.17;1759472;80;20954;-68
2021/05/04 01:04:58;;;;;;;4.42;2.20;;;;;;;8.49;86.13;99035.61;1757324;80;20938;-67
2021/05/04 01:07:36;;;;;;;5.67;2.37;;;;;;;8.49;86.37;99040.44;1757273;80;21603;-67
2021/05/04 01:10:11;;;;;;;3.50;2.33;;;;;;;8.49;86.57;99032.98;1757385;80;21033;-67
2021/05/04 01:12:46;;;;;;;3.00;2.27;;;;;;;8.46;86.96;99027.73;1759290;79;22083;-67
2021/05/04 01:15:20;;;;;;;4.62;3.00;;;;;;;8.44;87.30;99037.37;1756958;80;21619;-66
2021/05/04 01:17:59;;;;;;;9.43;3.12;;;;;;;8.37;87.63;99031.23;1757045;80;20954;-65
2021/05/04 01:20:30;;;;;;;5.65;3.08;;;;;;;8.33;88.38;99028.16;1756945;80;21464;-67
2021/05/04 01:23:04;;;;;;;3.30;2.70;;;;;;;8.28;88.92;99024.62;1759681;78;20990;-66
2021/05/04 01:25:42;;;;;;;4.40;2.72;;;;;;;8.25;89.48;99025.05;1756943;80;21208;-67
2021/05/04 01:28:14;;;;;;;3.20;2.90;;;;;;;8.21;89.84;99017.17;1757132;80;20954;-67
2021/05/04 01:30:47;;;;;;;5.42;3.02;;;;;;;8.19;90.23;99020.23;1757020;80;21136;-67
2021/05/04 01:33:21;;;;;;;6.45;2.92;;;;;;;8.16;90.43;99024.61;1759037;78;21548;-67
2021/05/04 01:35:53;;;;;;;9.60;2.80;;;;;;;8.13;90.87;99028.54;1758190;80;21050;-69
2021/05/04 01:38:31;;;;;;;7.58;3.77;;;;;;;8.09;91.41;99028.98;1770479;79;21453;-69
2021/05/04 01:41:14;;;;;;;5.08;4.12;;;;;;;8.08;91.99;99036.41;1783047;78;20991;-69
2021/05/04 01:43:51;;;;;;;4.00;3.45;;;;;;;8.01;92.54;99034.62;1734588;81;20982;-68
2021/05/04 01:46:22;;;;;;;6.28;3.10;;;;;;;7.95;92.99;99038.55;1805093;78;21690;-68
2021/05/04 01:48:58;;;;;;;3.42;2.50;;;;;;;7.89;93.61;99030.65;1805675;78;20875;-69
2021/05/04 01:51:30;;;;;;;4.30;2.95;;;;;;;7.86;94.02;99026.70;1805264;78;21359;-69
2021/05/04 01:54:04;;;;;;;5.75;2.72;;;;;;;7.83;94.36;99026.26;1803563;78;21046;-68
2021/05/04 01:56:38;;;;;;;2.80;2.55;;;;;;;7.79;94.94;99027.13;1775955;79;21477;-67
2021/05/04 01:59:10;;;;;;;5.05;2.80;;;;;;;7.77;95.49;99024.05;1776141;79;21049;-68
2021/05/04 02:01:45;;;;;;;4.65;3.17;;;;;;;7.73;96.03;99017.04;1805365;78;20990;-67
2021/05/04 02:04:17;;;;;;;6.22;3.70;;;;;;;7.71;96.47;99014.41;1805815;78;21262;-68
2021/05/04 02:06:53;;;;;;;5.20;3.92;;;;;;;7.70;96.92;99020.53;1803524;79;28690;-69
2021/05/04 02:09:27;;;;;;;4.92;3.67;;;;;;;7.68;97.34;99024.91;1805597;78;21113;-68
2021/05/04 02:12:00;;;;;;;5.87;3.52;;;;;;;7.67;97.78;99037.59;1775146;79;20959;-69
2021/05/04 02:14:37;;;;;;;2.90;2.52;;;;;;;7.64;98.13;99037.58;1734125;81;21077;-70
2021/05/04 02:17:11;;;;;;;3.62;2.40;;;;;;;7.62;98.61;99032.76;1775441;79;20932;-69
2021/05/04 02:19:44;;;;;;;3.27;2.35;;;;;;;7.60;98.94;99041.50;1733791;81;21066;-70
2021/05/04 02:22:16;;;;;;;2.90;2.35;;;;;;;7.54;99.37;99036.63;1774018;79;20994;-67
2021/05/04 02:24:54;;;;;;;3.00;2.25;;;;;;;7.49;99.90;99040.11;1774034;79;20927;-68
2021/05/04 02:27:25;;;;;;;3.87;2.15;;;;;;;7.43;100.00;99035.71;1731966;81;20987;-68
2021/05/04 02:30:00;;;;;;;6.78;2.92;;;;;;;7.39;100.00;99037.88;1773937;79;21205;-69
2021/05/04 02:32:37;;;;;;;6.17;2.50;;;;;;;7.35;100.00;99029.55;1773891;79;20911;-69
2021/05/04 02:35:09;;;;;;;2.65;2.33;;;;;;;7.35;100.00;99026.92;1734484;81;20959;-69
2021/05/04 02:37:44;;;;;;;;;;;;;;;7.34;100.00;99033.48;1778527;79;20867;-69
2021/05/04 02:40:25;;;;;;;4.12;2.90;;;;;;;7.33;100.00;99037.84;1773622;79;20223;-68
2021/05/04 02:42:56;;;;;;;3.72;2.60;;;;;;;7.30;100.00;99044.39;1716199;81;21395;-68
2021/05/04 02:45:26;;;;;;;4.30;2.70;;;;;;;7.25;100.00;99048.31;1709659;84;21144;-67
2021/05/04 02:47:58;;;;;;;3.02;2.70;;;;;;;7.25;100.00;99052.67;1769514;79;21125;-68
2021/05/04 02:50:29;;;;;;;3.27;2.98;;;;;;;7.19;100.00;99054.84;1798702;78;21006;-68
2021/05/04 02:53:00;;;;;;;3.52;2.60;;;;;;;7.17;100.00;99055.69;1798098;78;21014;-68
2021/05/04 02:55:31;;;;;;;2.20;2.00;;;;;;;7.14;100.00;99056.55;1798391;78;21184;-70
2021/05/04 02:58:01;;;;;;;3.62;2.45;;;;;;;7.14;100.00;99050.00;1796687;78;20971;-69
2021/05/04 03:00:33;;;;;;;3.10;2.42;;;;;;;7.13;100.00;99057.86;1768401;79;21145;-67
2021/05/04 03:03:03;;;;;;;2.35;2.15;;;;;;;7.14;100.00;99058.30;1715580;82;21188;-69
2021/05/04 03:05:33;;;;;;;3.37;2.72;;;;;;;7.12;100.00;99060.03;1710788;82;21148;-70
2021/05/04 03:08:05;;;;;;;3.20;2.70;;;;;;;7.11;100.00;99064.41;1767475;81;21280;-70
2021/05/04 03:10:35;;;;;;;2.75;2.45;;;;;;;7.09;100.00;99062.17;1773594;79;21003;-70
2021/05/04 03:13:06;;;;;;;3.70;2.80;;;;;;;7.09;100.00;99059.55;1715309;82;21524;-70
2021/05/04 03:15:38;;;;;;;5.37;2.87;;;;;;;7.10;100.00;99073.58;1729891;82;21062;-70
2021/05/04 03:18:09;;;;;;;2.80;2.50;;;;;;;7.07;100.00;99073.52;1799081;79;21462;-69
2021/05/04 03:20:40;;;;;;;4.17;3.22;;;;;;;7.07;100.00;99077.45;1796240;79;21191;-69
2021/05/04 03:23:09;;;;;;;4.28;3.17;;;;;;;7.08;100.00;99076.16;1799015;78;20927;-70
2021/05/04 03:25:41;;;;;;;4.35;3.42;;;;;;;7.09;100.00;99078.34;1798223;78;20951;-71
2021/05/04 03:28:12;;;;;;;3.92;3.22;;;;;;;7.11;100.00;99071.39;1798493;78;20912;-69
2021/05/04 03:30:42;;;;;;;5.08;3.35;;;;;;;7.14;100.00;99076.23;1794141;79;20907;-70
2021/05/04 03:33:12;;;;;;;3.50;3.00;;;;;;;7.17;100.00;99071.00;1715090;82;21411;-69
2021/05/04 03:35:44;;;;;;;4.12;2.90;;;;;;;7.19;100.00;99066.64;1710565;82;24719;-68
2021/05/04 03:38:13;;;;;;;2.80;2.58;;;;;;;7.22;100.00;99062.72;1715367;82;21021;-68
2021/05/04 03:40:43;;;;;;;3.42;2.70;;;;;;;7.26;100.00;99060.99;1712602;82;21545;-66
2021/05/04 03:43:14;;;;;;;5.28;2.52;;;;;;;7.33;100.00;99066.72;1689246;82;21238;-69
2021/05/04 03:45:44;;;;;;;5.22;2.47;;;;;;;7.41;100.00;99066.75;1779221;78;21193;-69
2021/05/04 03:48:15;;;;;;;3.58;2.72;;;;;;;7.47;100.00;99075.53;1789240;78;20938;-69
2021/05/04 03:50:45;;;;;;;9.50;5.00;;;;;;;7.51;100.00;99085.17;1749091;80;21539;-68
2021/05/04 03:53:15;;;;;;;6.70;3.90;;;;;;;7.54;100.00;99088.25;1787495;78;21049;-69
2021/05/04 03:55:46;;;;;;;3.75;3.10;;;;;;;7.52;100.00;99096.12;1788525;78;20986;-68
2021/05/04 03:58:18;;;;;;;3.77;3.17;;;;;;;7.56;100.00;99091.33;1751566;80;20942;-68
2021/05/04 04:00:49;;;;;;;4.85;2.65;;;;;;;7.63;100.00;99095.33;1782170;78;21183;-70
2021/05/04 04:03:21;;;;;;;2.90;2.50;;;;;;;7.71;100.00;99093.61;1760348;78;20919;-69
2021/05/04 04:05:52;;;;;;;4.25;2.75;;;;;;;7.79;100.00;99091.89;1767546;78;21060;-69
2021/05/04 04:08:23;;;;;;;3.33;2.85;;;;;;;7.87;100.00;99091.48;1729350;82;21186;-69
2021/05/04 04:10:53;;;;;;;3.15;2.62;;;;;;;7.95;100.00;99093.70;1762710;79;21193;-68
2021/05/04 04:13:23;;;;;;;4.20;2.95;;;;;;;8.01;100.00;99093.72;1788242;79;20935;-70
2021/05/04 04:15:54;;;;;;;3.70;3.40;;;;;;;8.12;100.00;99100.35;1788563;78;20987;-68
2021/05/04 04:18:25;;;;;;;10.13;3.05;;;;;;;8.15;100.00;99097.30;1739476;80;20946;-68
2021/05/04 04:20:54;;;;;;;3.72;3.05;;;;;;;8.20;100.00;99101.25;1760538;78;21120;-68
2021/05/04 04:23:26;;;;;;;3.40;3.10;;;;;;;8.22;100.00;99102.13;1758148;80;21191;-68
2021/05/04 04:25:56;;;;;;;4.45;3.40;;;;;;;8.28;100.00;99102.14;1763220;78;20966;-68
2021/05/04 04:28:28;;;;;;;3.30;2.85;;;;;;;8.36;100.00;99108.33;1789226;78;21080;-69
2021/05/04 04:30:59;;;;;;;3.30;2.98;;;;;;;8.45;100.00;99111.41;1748435;80;20894;-68
2021/05/04 04:33:29;;;;;;;4.83;3.02;;;;;;;8.48;100.00;99117.98;1774625;78;21033;-68
2021/05/04 04:36:00;;;;;;;4.47;3.08;;;;;;;8.50;100.00;99123.68;1758762;80;21159;-67
2021/05/04 04:38:30;;;;;;;4.22;3.33;;;;;;;8.59;100.00;99130.73;1758290;80;21069;-68
2021/05/04 04:41:00;;;;;;;5.10;3.95;;;;;;;8.65;100.00;99131.19;1760388;80;21045;-68
2021/05/04 04:43:30;;;;;;;4.12;3.22;;;;;;;8.67;100.00;99136.01;1771513;79;20919;-68
2021/05/04 04:46:01;;;;;;;5.72;3.47;;;;;;;8.72;100.00;99140.83;1775784;79;21002;-69
2021/05/04 04:48:37;;;;;;;3.65;3.25;;;;;;;8.76;100.00;99141.27;1722384;82;21361;-69
2021/05/04 04:51:08;;;;;;;4.12;3.45;;;;;;;8.79;100.00;99146.09;1773320;79;20895;-69
2021/05/04 04:53:39;;;;;;;4.62;3.52;;;;;;;8.81;100.00;99141.72;1773334;79;20909;-69
2021/05/04 04:56:10;;;;;;;3.95;2.77;;;;;;;8.82;100.00;99146.10;1778025;79;22199;-69
2021/05/04 04:58:41;;;;;;;3.50;2.55;;;;;;;8.89;100.00;99143.47;1773973;79;21011;-69
2021/05/04 05:01:11;;;;;;;4.05;2.20;;;;;;;8.98;100.00;99152.68;1773938;79;21362;-69
2021/05/04 05:03:41;;;;;;;2.58;2.25;;;;;;;9.03;100.00;99151.84;1723551;82;21049;-69
2021/05/04 05:06:12;;;;;;;4.72;2.42;;;;;;;9.12;100.00;99146.58;1797277;78;21017;-70
2021/05/04 05:08:43;;;;;;;3.00;2.37;;;;;;;9.19;100.00;99147.88;1804574;78;21128;-71
2021/05/04 05:11:15;;;;;;;2.42;2.20;;;;;;;9.24;100.00;99136.47;1801507;79;21558;-71
2021/05/04 05:13:45;;;;;;;2.27;2.08;;;;;;;9.29;100.00;99141.73;1773162;79;21478;-71
2021/05/04 05:16:18;;;;;;;2.55;2.20;;;;;;;9.31;100.00;99132.08;1722839;82;21169;-71
2021/05/04 05:18:51;;;;;;;2.85;2.30;;;;;;;9.35;100.00;99122.86;1772994;79;20942;-68
2021/05/04 05:21:22;;;;;;;3.30;2.90;;;;;;;9.40;100.00;99128.11;1775244;79;21042;-68
2021/05/04 05:23:53;;;;;;;3.75;2.77;;;;;;;9.46;100.00;99130.77;1773138;80;20926;-69
2021/05/04 05:26:25;;;;;;;3.77;2.50;;;;;;;9.53;100.00;99131.63;1757261;79;21198;-70
2021/05/04 05:28:55;;;;;;;3.15;2.55;;;;;;;9.61;100.00;99124.59;1776081;79;21084;-71
2021/05/04 05:31:26;;;;;;;3.20;2.75;;;;;;;9.69;100.00;99130.27;1775630;79;20950;-71
2021/05/04 05:33:55;;;;;;;3.67;2.45;;;;;;;9.75;100.00;99128.05;1773423;79;20891;-71
2021/05/04 05:36:26;;;;;;;3.30;2.40;;;;;;;9.76;100.00;99128.05;1785427;79;20891;-69
2021/05/04 05:38:57;;;;;;;7.30;2.75;;;;;;;9.79;100.00;99125.84;1805027;79;21457;-69
2021/05/04 05:41:27;;;;;;;3.67;2.60;;;;;;;9.79;99.84;99135.06;1793445;79;20970;-69
2021/05/04 05:43:56;;;;;;;3.02;2.45;;;;;;;9.78;99.24;99135.94;1804212;79;21061;-69
2021/05/04 05:46:30;;;;;;;3.15;2.65;;;;;;;9.82;99.78;99131.10;1805033;79;21064;-69
2021/05/04 05:48:59;;;;;;;3.58;2.83;;;;;;;9.89;100.00;99133.27;1805476;79;21041;-69
2021/05/04 05:51:29;;;;;;;8.08;2.80;;;;;;;9.97;100.00;99128.88;1804145;78;21354;-70
2021/05/04 05:53:59;;;;;;;4.22;3.17;;;;;;;10.06;99.50;99136.30;1803575;79;21046;-69
2021/05/04 05:56:29;;;;;;;2.77;2.22;;;;;;;10.09;98.23;99138.92;1804999;78;20994;-70
2021/05/04 05:58:59;;;;;;;3.17;2.22;;;;;;;10.12;97.29;99137.16;1805355;79;20923;-70
2021/05/04 06:01:29;;;;;;;3.05;2.35;;;;;;;10.14;97.27;99139.34;1789129;78;21093;-70
2021/05/04 06:03:59;;;;;;;2.50;2.12;;;;;;;10.18;96.22;99142.40;1776203;79;22167;-70
2021/05/04 06:06:29;;;;;;;5.10;2.45;;;;;;;10.22;95.20;99146.81;1785377;78;21022;-70
2021/05/04 06:08:58;;;;;;;5.37;2.30;;;;;;;10.26;94.13;99142.83;1805453;78;21462;-71
2021/05/04 06:11:28;;;;;;;1.85;1.72;;;;;;;10.34;93.93;99149.38;1803589;78;20931;-71
2021/05/04 06:13:57;;;;;;;3.35;2.15;;;;;;;10.44;93.62;99144.97;1798504;78;21148;-71
2021/05/04 06:16:28;;;;;;;3.83;2.52;;;;;;;10.52;93.43;99144.48;1787420;79;22331;-73
2021/05/04 06:18:59;;;;;;;2.60;1.90;;;;;;;10.60;92.75;99146.19;1773956;79;21483;-70
2021/05/04 06:21:30;;;;;;;2.87;2.10;;;;;;;10.72;91.67;99142.58;1773982;79;20938;-72
2021/05/04 06:24:00;;;;;;;2.80;2.20;;;;;;;10.84;90.49;99138.54;1776085;79;21068;-72
2021/05/04 06:26:29;;;;;;;3.83;1.92;;;;;;;10.96;89.98;99139.80;1773840;79;21050;-72
2021/05/04 06:29:00;;;;;;;2.98;2.12;;;;;;;11.11;89.88;99132.19;1774003;79;21197;-72
2021/05/04 06:31:30;;;;;;;2.70;2.08;;;;;;;11.23;88.32;99124.61;1733478;81;21102;-68
2021/05/04 06:34:02;;;;;;;2.15;1.90;;;;;;;11.35;86.03;99128.03;1775618;79;20962;-71
2021/05/04 06:36:34;;;;;;;5.67;1.85;;;;;;;11.43;83.03;99127.09;1779511;78;22150;-72
2021/05/04 06:39:05;;;;;;;2.87;1.95;;;;;;;11.49;82.40;99125.70;1805061;78;20967;-72
2021/05/04 06:41:36;;;;;;;3.67;2.20;;;;;;;11.58;81.34;99123.84;1804708;79;21348;-71
2021/05/04 06:44:07;;;;;;;2.20;1.90;;;;;;;11.69;80.45;99122.40;1805272;78;21092;-71
2021/05/04 06:46:37;;;;;;;2.00;1.80;;;;;;;11.80;81.02;99117.90;1802768;79;21033;-67
2021/05/04 06:49:07;;;;;;;3.62;2.10;;;;;;;11.95;80.96;99127.45;1804257;78;21141;-67
2021/05/04 06:51:37;;;;;;;3.20;2.02;;;;;;;12.07;77.91;99121.13;1803096;78;20982;-66
2021/05/04 06:54:09;;;;;;;1.93;1.77;;;;;;;12.18;77.88;99124.06;1802764;79;21188;-69
2021/05/04 06:56:39;;;;;;;2.35;1.90;;;;;;;12.32;76.77;99131.84;1805457;79;21038;-70
2021/05/04 06:59:10;;;;;;;3.12;1.90;;;;;;;12.43;73.79;99124.64;1805332;79;21112;-71
2021/05/04 07:01:39;;;;;;;3.95;2.00;;;;;;;12.53;72.08;99129.35;1787567;79;21041;-66
2021/05/04 07:04:10;;;;;;;2.90;1.65;;;;;;;12.65;71.92;99126.52;1776159;79;21600;-69
2021/05/04 07:06:42;;;;;;;2.77;1.75;;;;;;;12.76;71.08;99124.59;1773888;79;21189;-70
2021/05/04 07:09:12;;;;;;;3.87;1.80;;;;;;;12.85;67.86;99127.13;1720680;81;24902;-69
2021/05/04 07:11:44;;;;;;;9.30;1.60;;;;;;;12.90;63.96;99127.92;1774846;79;21017;-70
2021/05/04 07:14:14;;;;;;;1.92;1.50;;;;;;;12.92;62.13;99119.51;1775823;78;21152;-69
2021/05/04 07:16:45;;;;;;;3.37;1.50;;;;;;;13.02;62.36;99128.17;1795239;79;21097;-68
2021/05/04 07:19:16;;;;;;;3.80;2.12;;;;;;;13.13;61.04;99120.92;1779923;79;21440;-72
2021/05/04 07:21:47;;;;;;;4.05;1.62;;;;;;;13.27;60.48;99114.58;1790777;79;21158;-71
2021/05/04 07:24:17;;;;;;;2.25;1.40;;;;;;;13.37;58.17;99121.46;1784634;79;21003;-71
2021/05/04 07:26:50;;;;;;;3.27;2.10;;;;;;;13.45;57.21;99119.09;1783021;79;21097;-71
2021/05/04 07:29:20;;;;;;;;;;;;;;;13.53;55.90;99121.61;1730775;82;21490;-70
2021/05/04 07:31:50;;;;;;;2.80;1.95;;;;;;;13.53;54.15;99127.78;1726551;81;21147;-70
2021/05/04 07:34:21;;;;;;;1.82;1.60;;;;;;;13.52;52.76;99124.70;1730431;82;21520;-71
2021/05/04 07:36:50;;;;;;;4.58;2.00;;;;;;;13.58;52.54;99126.81;1764706;80;20938;-70
2021/05/04 07:39:20;;;;;;;1.57;1.47;;;;;;;13.68;53.04;99134.56;1776401;79;21451;-70
2021/05/04 07:41:51;;;;;;;5.15;1.80;;;;;;;13.76;52.11;99132.67;1773491;79;20907;-70
2021/05/04 07:44:21;;;;;;;9.50;1.98;;;;;;;13.85;51.92;99125.00;1775271;79;21358;-67
2021/05/04 07:46:51;;;;;;;3.70;1.87;;;;;;;13.92;51.07;99127.07;1788015;79;21075;-69
2021/05/04 07:49:37;;;;;;;8.88;2.20;;;;;;;13.93;50.53;99128.81;1807587;79;21041;-70
2021/05/04 07:52:06;;;;;;;2.72;2.10;;;;;;;14.06;50.68;99118.38;1802964;79;21015;-70
2021/05/04 07:54:40;;;;;;;4.40;1.90;;;;;;;14.12;49.89;99130.19;1728976;82;21070;-70
2021/05/04 07:57:12;;;;;;;5.33;2.35;;;;;;;14.20;49.43;99133.59;1794255;79;21364;-71
2021/05/04 07:59:42;;;;;;;5.12;2.30;;;;;;;14.30;48.89;99126.30;1729249;81;20998;-70
2021/05/04 08:02:12;;;;;;;2.40;1.80;;;;;;;14.42;48.69;99123.38;1752721;79;21018;-70
2021/05/04 08:04:44;;;;;;;2.35;2.00;;;;;;;14.58;48.82;99130.58;1793977;79;21619;-70
2021/05/04 08:07:14;;;;;;;4.62;2.72;;;;;;;14.72;48.66;99111.26;1767971;79;21116;-69
2021/05/04 08:09:45;;;;;;;4.40;1.95;;;;;;;14.80;47.72;99118.13;1801675;79;21187;-71
2021/05/04 08:12:15;;;;;;;3.12;2.30;;;;;;;14.82;47.14;99118.09;1794525;79;21108;-68
2021/05/04 08:14:47;;;;;;;3.85;2.75;;;;;;;14.79;46.34;99112.86;1792630;79;20958;-70
2021/05/04 08:17:19;;;;;;;6.03;2.35;;;;;;;14.74;45.69;99112.09;1799091;79;21069;-69
2021/05/04 08:19:50;;;;;;;3.67;2.20;;;;;;;14.67;45.38;99106.05;1801349;79;21292;-68
2021/05/04 08:22:20;;;;;;;5.08;2.33;;;;;;;14.61;45.01;99107.49;1792596;79;21305;-70
2021/05/04 08:24:51;;;;;;;3.27;2.62;;;;;;;14.60;45.10;99102.22;1792554;79;21153;-69
2021/05/04 08:27:22;;;;;;;4.20;2.67;;;;;;;14.66;45.27;99095.44;1803865;79;20916;-70
2021/05/04 08:29:52;;;;;;;4.83;2.05;;;;;;;14.73;45.04;99089.11;1800683;78;21014;-69
2021/05/04 08:32:22;;;;;;;3.30;1.92;;;;;;;14.85;46.08;99090.14;1793053;78;21159;-70
2021/05/04 08:34:53;;;;;;;2.42;1.95;;;;;;;14.95;45.26;99095.64;1807382;79;21367;-70
2021/05/04 08:37:25;;;;;;;;;;;;;;;14.86;44.31;99102.96;1810173;78;21089;-70
2021/05/04 08:39:58;;;;;;;2.83;2.00;;;;;;;14.76;44.42;99100.98;1801826;78;20237;-69
2021/05/04 08:42:31;;;;;;;2.12;1.92;;;;;;;14.74;44.64;99097.48;1775785;79;21604;-69
2021/05/04 08:45:04;;;;;;;2.98;2.10;;;;;;;14.79;44.82;99096.92;1783988;79;21266;-68
2021/05/04 08:47:34;;;;;;;3.75;2.30;;;;;;;14.92;45.69;99097.50;1784085;79;21429;-66
2021/05/04 08:50:06;;;;;;;4.47;2.00;;;;;;;15.03;44.99;99096.32;1798626;79;21160;-66
2021/05/04 08:52:36;;;;;;;7.08;2.12;;;;;;;15.09;44.50;99092.19;1787621;79;21123;-64
2021/05/04 08:55:08;;;;;;;3.80;2.30;;;;;;;15.08;43.63;99104.17;1813780;79;21015;-68
2021/05/04 08:57:38;;;;;;;3.20;2.25;;;;;;;14.96;42.50;99104.48;1806877;79;21045;-70
2021/05/04 09:00:12;;;;;;;3.22;2.30;;;;;;;14.82;42.13;99099.51;1804960;79;21348;-70
2021/05/04 09:03:10;;;;;;;6.37;2.17;;;;;;;14.68;42.11;99102.95;1797915;79;21040;-69
2021/05/04 09:05:44;;;;;;;6.60;2.08;;;;;;;14.57;42.48;99102.29;1783948;79;21894;-69
2021/05/04 09:08:51;;;;;;;5.15;2.40;;;;;;;14.49;42.83;99103.34;1785803;79;21122;-71
2021/05/04 09:14:16;;;;;;;3.25;1.65;;;;;;;14.33;42.11;99105.02;1807269;79;21560;-70
2021/05/04 09:22:41;;;;;;;1.90;1.70;;;;;;;14.13;43.62;99102.76;1815766;79;21152;-71
2021/05/04 09:25:35;;;;;;;2.58;1.70;;;;;;;14.25;43.95;99095.89;1815995;79;20914;-70
2021/05/04 09:28:13;;;;;;;5.33;2.22;;;;;;;14.38;44.25;99103.13;1815975;79;22331;-70
2021/05/04 09:30:53;;;;;;;3.00;1.57;;;;;;;14.48;44.49;99106.91;1816220;77;20902;-71
2021/05/04 09:33:25;;;;;;;4.45;2.20;;;;;;;14.59;44.47;99107.11;1777656;79;20942;-70
2021/05/04 09:35:55;;;;;;;2.87;2.00;;;;;;;14.66;44.10;99107.39;1783801;80;21095;-70
2021/05/04 09:38:25;;;;;;;5.28;2.17;;;;;;;14.71;43.88;99104.20;1784046;80;21112;-72
2021/05/04 09:40:57;;;;;;;3.70;2.20;;;;;;;14.83;44.50;99101.25;1783979;79;21187;-72
2021/05/04 09:43:28;;;;;;;4.20;2.20;;;;;;;14.96;43.70;99104.03;1783700;80;21622;-73
2021/05/04 09:46:01;;;;;;;3.37;1.80;;;;;;;15.03;43.82;99098.11;1783699;80;21078;-72
2021/05/04 09:48:35;;;;;;;2.90;1.80;;;;;;;15.16;43.26;99097.38;1783700;79;21436;-72
2021/05/04 09:51:16;;;;;;;6.15;1.77;;;;;;;15.30;43.06;99093.45;1783625;79;21242;-72
2021/05/04 09:53:50;;;;;;;5.72;1.90;;;;;;;15.40;42.55;99098.06;1783469;80;21200;-70
2021/05/04 09:56:36;;;;;;;1.90;1.50;;;;;;;15.46;42.35;99095.23;1783442;79;20918;-70
2021/05/04 09:59:06;;;;;;;2.58;1.32;;;;;;;15.43;41.87;99086.02;1783597;79;21064;-68
2021/05/04 10:01:37;;;;;;;5.17;1.40;;;;;;;15.40;41.69;99094.08;1791509;77;21567;-68
2021/05/04 10:04:07;;;;;;;3.22;1.52;;;;;;;15.37;41.56;99090.17;1804077;77;21116;-69
2021/05/04 10:06:36;;;;;;;3.37;1.67;;;;;;;15.34;41.67;99091.12;1783776;79;22248;-67
2021/05/04 10:09:08;;;;;;;5.75;1.67;;;;;;;15.28;41.41;99092.61;1783604;79;21021;-68
2021/05/04 10:11:37;;;;;;;3.85;1.80;;;;;;;15.24;41.26;99087.42;1755558;79;21159;-73
2021/05/04 10:14:08;;;;;;;7.90;1.95;;;;;;;15.23;41.33;99098.50;1783747;79;21144;-68
2021/05/04 10:16:39;;;;;;;3.10;1.62;;;;;;;15.30;41.57;99086.80;1757547;79;21014;-70
2021/05/04 10:19:10;;;;;;;3.50;1.70;;;;;;;15.34;41.82;99084.48;1733714;82;21205;-70
2021/05/04 10:21:43;;;;;;;2.25;1.47;;;;;;;15.37;41.62;99088.84;1738559;82;21128;-70
2021/05/04 10:24:13;;;;;;;2.30;1.90;;;;;;;15.40;40.89;99075.02;1713613;82;21158;-69
2021/05/04 10:26:44;;;;;;;3.42;1.70;;;;;;;15.38;40.39;99078.63;1732777;82;21098;-70
2021/05/04 10:29:14;;;;;;;3.37;1.67;;;;;;;15.34;40.44;99068.53;1754486;79;20978;-70
2021/05/04 10:31:47;;;;;;;7.15;1.72;;;;;;;15.30;40.11;99076.17;1755670;79;20926;-71
2021/05/04 10:34:35;;;;;;;5.37;1.60;;;;;;;15.34;40.89;99070.31;1801321;77;21057;-70
2021/05/04 10:37:27;;;;;;;2.25;1.47;;;;;;;15.51;41.23;99080.03;1798425;77;21128;-71
2021/05/04 10:39:56;;;;;;;2.67;1.50;;;;;;;15.74;41.51;99071.48;1800886;77;21111;-69
2021/05/04 10:42:40;;;;;;;2.60;1.95;;;;;;;16.01;41.42;99073.35;1733195;81;21116;-66
2021/05/04 10:45:09;;;;;;;6.28;1.95;;;;;;;16.29;41.75;99064.57;1803240;79;23204;-67
2021/05/04 10:47:47;;;;;;;2.12;1.70;;;;;;;16.53;40.81;99056.28;1730729;82;21069;-70
2021/05/04 10:50:44;;;;;;;2.12;1.50;;;;;;;16.69;39.18;99061.59;1797956;79;21041;-64
2021/05/04 10:53:14;;;;;;;2.40;1.70;;;;;;;16.85;39.44;99051.30;1785263;79;21544;-63
2021/05/04 10:55:59;;;;;;;1.90;1.67;;;;;;;16.96;38.95;99055.35;1815383;78;21014;-67
2021/05/04 10:58:30;;;;;;;3.40;1.40;;;;;;;16.98;38.53;99056.17;1813292;77;22110;-68
2021/05/04 11:01:07;;;;;;;2.10;1.70;;;;;;;16.89;38.00;99059.61;1760636;79;21472;-68
2021/05/04 11:03:43;;;;;;;2.92;1.67;;;;;;;16.72;37.28;99064.16;1813142;79;20986;-65
2021/05/04 11:06:29;;;;;;;10.63;1.70;;;;;;;16.57;37.34;99065.48;1803425;79;21010;-70
2021/05/04 11:09:09;;;;;;;3.50;1.80;;;;;;;16.50;37.17;99057.25;1792011;79;21100;-68
2021/05/04 11:11:45;;;;;;;2.40;1.55;;;;;;;16.57;37.70;99064.61;1807425;77;21199;-69
2021/05/04 11:14:22;;;;;;;3.05;1.62;;;;;;;16.70;37.59;99058.00;1802638;79;21037;-69
2021/05/04 11:16:59;;;;;;;3.65;2.17;;;;;;;16.82;37.38;99051.41;1735043;82;21029;-69
2021/05/04 11:19:39;;;;;;;2.60;1.70;;;;;;;16.92;36.89;99050.18;1797466;79;21132;-66
2021/05/04 11:22:23;;;;;;;2.75;1.82;;;;;;;16.97;36.57;99051.77;1803534;78;20931;-66
2021/05/04 11:24:53;;;;;;;5.75;1.95;;;;;;;16.98;36.34;99039.31;1800533;77;21356;-68
2021/05/04 11:27:25;;;;;;;4.60;1.92;;;;;;;16.98;36.18;99041.52;1784445;79;20975;-70
2021/05/04 11:29:59;;;;;;;3.00;1.70;;;;;;;17.05;36.46;99039.55;1789038;79;20900;-71
2021/05/04 11:32:43;;;;;;;4.83;2.67;;;;;;;17.10;36.33;99041.59;1805272;79;21057;-70
2021/05/04 11:35:14;;;;;;;5.75;2.20;;;;;;;17.10;36.01;99042.92;1813369;77;21132;-67
2021/05/04 11:37:49;;;;;;;4.57;1.77;;;;;;;17.08;36.00;99039.44;1806453;79;21361;-68
2021/05/04 11:40:28;;;;;;;3.15;1.77;;;;;;;17.10;35.88;99039.39;1814866;79;20934;-68
2021/05/04 11:43:00;;;;;;;2.75;1.85;;;;;;;17.09;36.05;99030.98;1740068;82;21051;-69
2021/05/04 11:45:33;;;;;;;2.60;1.98;;;;;;;17.16;36.16;99027.18;1811404;77;21188;-69
2021/05/04 11:48:10;;;;;;;4.20;2.00;;;;;;;17.16;36.03;99024.52;1801535;78;21034;-70
2021/05/04 11:50:46;;;;;;;4.33;1.92;;;;;;;17.18;36.23;99019.55;1801557;79;22341;-69
2021/05/04 11:53:17;;;;;;;4.17;1.70;;;;;;;17.25;35.43;99018.41;1797875;79;21094;-69
2021/05/04 11:55:55;;;;;;;2.87;1.92;;;;;;;17.31;35.69;99009.31;1784760;79;21145;-71
2021/05/04 11:58:28;;;;;;;4.72;2.12;;;;;;;17.46;36.16;99012.77;1787726;79;20967;-70
2021/05/04 12:01:00;;;;;;;2.98;1.52;;;;;;;17.57;35.84;99011.94;1804505;79;21216;-71
2021/05/04 12:03:29;;;;;;;5.17;2.20;;;;;;;17.66;36.06;99005.39;1806184;79;22321;-68
2021/05/04 12:06:03;;;;;;;4.33;1.95;;;;;;;17.72;35.78;99005.20;1730333;80;21584;-70
2021/05/04 12:08:33;;;;;;;6.33;2.00;;;;;;;17.73;35.75;99001.61;1729863;82;21412;-70
2021/05/04 12:11:05;;;;;;;4.45;1.95;;;;;;;17.78;35.98;99001.44;1803849;79;21006;-73
2021/05/04 12:13:38;;;;;;;3.77;1.92;;;;;;;17.88;36.30;99008.16;1782077;79;21164;-70